Time;durP1;ratioP1;P1;durP2;ratioP2;P2;SDS_P1;SDS_P2;PMS_P1;PMS_P2;Temp;Humidity;BMP_temperature;BMP_pressure;BME280_temperature;BME280_humidity;BME280_pressure;Samples;Min_cycle;Max_cycle;Signal;HPM_P1;HPM_P2
2022/02/16 00:00:56;;;;;;;4.00;1.98;;;;;;;6.63;75.84;99596.00;10352046;28;20054;-63
2022/02/16 00:05:58;;;;;;;3.90;1.35;;;;;;;6.68;76.29;99598.28;10346629;28;20799;-63
2022/02/16 00:10:59;;;;;;;4.53;1.52;;;;;;;6.59;75.70;99594.56;10344002;28;20045;-63
2022/02/16 00:16:01;;;;;;;3.35;1.50;;;;;;;6.72;76.35;99576.81;10352452;28;20054;-62
2022/02/16 00:21:04;;;;;;;7.38;1.48;;;;;;;6.69;75.62;99561.16;10352984;28;20096;-63
2022/02/16 00:26:05;;;;;;;5.35;1.45;;;;;;;6.67;75.79;99554.31;10351801;28;20073;-63
2022/02/16 00:31:06;;;;;;;3.58;1.40;;;;;;;6.67;75.90;99555.13;10350988;28;20045;-63
2022/02/16 00:36:08;;;;;;;5.53;1.10;;;;;;;6.67;75.42;99560.44;10313616;28;1056686;-64
2022/02/16 00:41:09;;;;;;;4.72;1.00;;;;;;;6.62;76.39;99549.38;10356046;28;20054;-64
2022/02/16 00:46:11;;;;;;;4.55;1.23;;;;;;;6.51;76.45;99534.28;10355795;28;20053;-64
2022/02/16 00:51:12;;;;;;;3.95;1.65;;;;;;;6.55;77.42;99526.97;10359243;28;20140;-63
2022/02/16 00:56:14;;;;;;;4.85;1.27;;;;;;;6.72;77.41;99544.22;10359606;28;20144;-64
2022/02/16 01:01:16;;;;;;;2.70;1.05;;;;;;;6.75;78.95;99535.22;10355403;28;20124;-63
2022/02/16 01:06:17;;;;;;;2.28;1.30;;;;;;;6.80;78.58;99527.75;10355768;28;20097;-63
2022/02/16 01:11:21;;;;;;;5.43;1.40;;;;;;;6.64;79.37;99517.50;10352713;28;20061;-63
2022/02/16 01:16:22;;;;;;;5.28;1.77;;;;;;;6.67;79.56;99526.03;10360223;28;20042;-63
2022/02/16 01:21:24;;;;;;;2.08;1.20;;;;;;;6.79;80.32;99510.22;10358179;28;20049;-63
2022/02/16 01:26:25;;;;;;;2.45;1.50;;;;;;;6.62;79.95;99493.84;10358075;28;20049;-64
2022/02/16 01:31:27;;;;;;;2.80;1.60;;;;;;;6.57;80.10;99484.56;10361154;28;20140;-63
2022/02/16 01:36:28;;;;;;;4.20;2.10;;;;;;;6.48;81.54;99489.56;10356783;28;20064;-63
2022/02/16 01:41:30;;;;;;;3.97;2.20;;;;;;;6.47;81.64;99481.75;10354693;28;20062;-64
2022/02/16 01:46:33;;;;;;;7.72;2.33;;;;;;;6.47;82.74;99468.53;10363278;28;20069;-64
2022/02/16 01:51:34;;;;;;;2.70;1.70;;;;;;;6.46;82.03;99469.50;10357069;28;20049;-64
2022/02/16 01:56:36;;;;;;;6.07;2.20;;;;;;;6.27;82.58;99441.81;10353810;28;20054;-63
2022/02/16 02:01:38;;;;;;;5.00;2.05;;;;;;;6.36;83.04;99454.34;10358605;28;20061;-64
2022/02/16 02:06:40;;;;;;;3.08;1.85;;;;;;;6.16;83.70;99421.47;10351476;28;20045;-63
2022/02/16 02:11:42;;;;;;;4.60;2.00;;;;;;;6.40;84.21;99435.63;10351940;28;20064;-63
2022/02/16 02:16:44;;;;;;;4.35;2.13;;;;;;;6.26;83.90;99413.72;10355470;28;20045;-64
2022/02/16 02:21:46;;;;;;;3.80;1.98;;;;;;;6.34;83.61;99421.88;10353623;28;20041;-63
2022/02/16 02:26:48;;;;;;;3.95;1.90;;;;;;;6.24;84.08;99383.06;10356850;28;20547;-64
2022/02/16 02:31:49;;;;;;;3.28;1.80;;;;;;;6.14;85.40;99374.97;10356136;28;20502;-63
2022/02/16 02:36:51;;;;;;;4.75;1.60;;;;;;;6.12;84.94;99379.56;10350858;28;20398;-64
2022/02/16 02:41:52;;;;;;;4.97;1.90;;;;;;;6.10;85.97;99365.63;10362234;28;20602;-63
2022/02/16 02:46:54;;;;;;;3.22;2.05;;;;;;;6.28;86.30;99385.34;10350377;28;20060;-62
2022/02/16 02:51:55;;;;;;;4.63;2.72;;;;;;;6.08;86.63;99335.81;10358539;28;20064;-63
2022/02/16 02:56:58;;;;;;;3.72;1.88;;;;;;;6.25;86.12;99337.19;10356426;28;20139;-63
2022/02/16 03:02:00;;;;;;;4.68;1.90;;;;;;;6.17;87.43;99346.53;10356073;28;20590;-63
2022/02/16 03:07:02;;;;;;;5.65;2.47;;;;;;;6.11;87.57;99338.22;10354392;28;20727;-64
2022/02/16 03:12:03;;;;;;;3.13;1.95;;;;;;;6.21;88.11;99341.84;10353958;28;20046;-63
2022/02/16 03:17:05;;;;;;;3.70;1.48;;;;;;;6.13;88.03;99333.69;10354001;28;20057;-63
2022/02/16 03:22:06;;;;;;;3.85;1.95;;;;;;;6.15;88.93;99327.28;10353332;28;20068;-64
2022/02/16 03:27:07;;;;;;;2.25;1.58;;;;;;;6.15;89.18;99321.19;10354807;28;20704;-63
2022/02/16 03:32:09;;;;;;;4.13;1.85;;;;;;;6.21;89.16;99310.13;10342775;28;20046;-64
2022/02/16 03:37:10;;;;;;;2.45;1.52;;;;;;;6.27;88.56;99314.09;10351255;28;20132;-63
2022/02/16 03:42:14;;;;;;;4.32;1.55;;;;;;;6.08;90.13;99302.34;10317342;28;20551;-64
2022/02/16 03:47:15;;;;;;;2.88;1.60;;;;;;;6.00;90.92;99297.63;10314919;28;20686;-64
2022/02/16 03:52:17;;;;;;;2.95;1.63;;;;;;;6.17;90.29;99298.97;10308305;28;20093;-63
2022/02/16 03:57:18;;;;;;;2.45;1.25;;;;;;;6.05;91.20;99293.78;10312428;28;20054;-65
2022/02/16 04:02:20;;;;;;;4.13;1.60;;;;;;;5.91;92.73;99271.88;10312922;28;20137;-65
2022/02/16 04:07:22;;;;;;;2.92;1.15;;;;;;;6.05;92.69;99275.28;10307063;28;20057;-65
2022/02/16 04:12:23;;;;;;;4.25;1.48;;;;;;;6.06;92.04;99283.09;10304787;28;20126;-65
2022/02/16 04:17:25;;;;;;;3.47;1.85;;;;;;;6.00;92.23;99276.50;10308219;28;20460;-65
2022/02/16 04:22:26;;;;;;;2.83;1.23;;;;;;;6.03;91.98;99261.38;10307471;28;20065;-65
2022/02/16 04:27:28;;;;;;;3.30;1.30;;;;;;;6.01;91.37;99245.63;10313409;28;20053;-65
2022/02/16 04:32:29;;;;;;;2.95;0.98;;;;;;;6.06;91.98;99263.75;10308348;28;20046;-65
2022/02/16 04:37:31;;;;;;;2.50;1.17;;;;;;;5.97;91.89;99245.00;10309435;28;20572;-65
2022/02/16 04:42:32;;;;;;;5.00;1.40;;;;;;;6.17;91.34;99247.91;10310297;28;20045;-64
2022/02/16 04:47:34;;;;;;;5.82;1.52;;;;;;;6.14;92.24;99250.78;10309688;28;20053;-63
2022/02/16 04:52:36;;;;;;;4.22;1.30;;;;;;;6.19;91.69;99244.19;10307554;28;20050;-63
2022/02/16 04:57:38;;;;;;;3.53;1.10;;;;;;;6.27;90.98;99235.66;10310128;28;20060;-63
2022/02/16 05:02:39;;;;;;;2.15;0.88;;;;;;;6.28;90.95;99245.28;10306759;28;20057;-63
2022/02/16 05:07:41;;;;;;;3.60;1.17;;;;;;;6.13;90.86;99206.84;10312091;28;21425;-64
2022/02/16 05:12:42;;;;;;;1.25;0.95;;;;;;;6.39;90.75;99230.38;10310449;28;20077;-64
2022/02/16 05:17:43;;;;;;;2.05;0.75;;;;;;;6.27;90.86;99214.50;10308599;28;20064;-62
2022/02/16 05:22:45;;;;;;;2.65;0.63;;;;;;;6.26;90.77;99206.69;10308160;28;20093;-63
2022/02/16 05:27:46;;;;;;;3.50;1.13;;;;;;;6.32;90.51;99185.06;10309870;28;20050;-63
2022/02/16 05:32:48;;;;;;;2.88;0.82;;;;;;;6.35;90.26;99184.81;10319241;28;20061;-63
2022/02/16 05:37:49;;;;;;;2.53;1.10;;;;;;;6.18;90.30;99173.81;10322212;28;20130;-63
2022/02/16 05:42:50;;;;;;;2.63;1.00;;;;;;;6.35;89.80;99169.81;10313856;28;20050;-64
2022/02/16 05:47:52;;;;;;;1.88;1.02;;;;;;;6.16;90.26;99143.19;10318353;28;20615;-64
2022/02/16 05:52:53;;;;;;;2.45;0.88;;;;;;;6.28;90.36;99157.22;10311735;28;20050;-63
2022/02/16 05:57:55;;;;;;;3.30;1.10;;;;;;;6.29;91.05;99157.09;10300187;28;20104;-64
2022/02/16 06:02:56;;;;;;;2.60;0.80;;;;;;;6.32;89.87;99148.06;10306065;28;20470;-64
2022/02/16 06:07:58;;;;;;;1.75;1.00;;;;;;;6.39;89.77;99140.50;10316622;28;20085;-64
2022/02/16 06:13:00;;;;;;;2.88;1.00;;;;;;;6.42;89.77;99143.72;10315662;28;20093;-64
2022/02/16 06:18:02;;;;;;;2.78;0.90;;;;;;;6.37;90.46;99138.81;10310703;28;20153;-64
2022/02/16 06:23:03;;;;;;;1.80;1.00;;;;;;;6.40;90.58;99128.97;10344552;28;20046;-67
2022/02/16 06:28:05;;;;;;;3.28;1.08;;;;;;;6.46;90.38;99126.66;10322781;28;20074;-64
2022/02/16 06:33:06;;;;;;;2.53;1.00;;;;;;;6.45;90.78;99122.31;10308068;28;20050;-65
2022/02/16 06:38:10;;;;;;;2.22;1.20;;;;;;;6.47;91.10;99122.19;10313136;28;20050;-66
2022/02/16 06:43:14;;;;;;;2.95;1.40;;;;;;;6.48;90.53;99127.34;10306267;28;20050;-66
2022/02/16 06:48:15;;;;;;;2.67;1.17;;;;;;;6.43;91.27;99128.72;10305909;28;20050;-66
2022/02/16 06:53:17;;;;;;;3.97;1.38;;;;;;;6.49;91.75;99109.72;10309349;28;20160;-63
2022/02/16 06:58:18;;;;;;;1.55;0.93;;;;;;;6.48;91.25;99110.66;10307799;28;20232;-65
2022/02/16 07:03:20;;;;;;;4.43;0.82;;;;;;;6.48;92.90;99106.22;10307842;28;20362;-65
2022/02/16 07:08:21;;;;;;;2.35;0.75;;;;;;;6.48;92.52;99095.63;10317708;28;20763;-66
2022/02/16 07:13:23;;;;;;;4.30;1.27;;;;;;;6.51;92.99;99099.84;10315166;28;20053;-62
2022/02/16 07:18:28;;;;;;;3.20;1.00;;;;;;;6.55;92.99;99085.41;10323985;28;20046;-65
2022/02/16 07:23:30;;;;;;;2.78;1.20;;;;;;;6.50;94.03;99072.56;10341333;28;20686;-63
2022/02/16 07:28:32;;;;;;;3.92;1.42;;;;;;;6.46;94.49;99065.03;10336113;28;20060;-62
2022/02/16 07:33:34;;;;;;;4.05;1.13;;;;;;;6.56;93.83;99060.66;10340129;28;20058;-60
2022/02/16 07:38:35;;;;;;;2.30;1.42;;;;;;;6.45;94.40;99042.19;10337684;28;20527;-63
2022/02/16 07:43:37;;;;;;;4.20;1.80;;;;;;;6.35;94.56;99039.44;10343218;28;20057;-62
2022/02/16 07:48:38;;;;;;;1.33;0.68;;;;;;;6.49;94.72;99035.69;10342011;28;20050;-62
2022/02/16 07:53:40;;;;;;;2.75;1.38;;;;;;;6.40;94.89;99017.94;10341003;28;21958;-59
2022/02/16 07:58:41;;;;;;;2.88;1.63;;;;;;;6.57;95.56;99035.88;10339348;28;20065;-61
2022/02/16 08:03:43;;;;;;;1.95;0.80;;;;;;;6.50;95.71;99014.41;10348494;28;20065;-61
2022/02/16 08:08:45;;;;;;;1.63;1.10;;;;;;;6.64;95.53;99031.75;10341063;28;20073;-61
2022/02/16 08:13:49;;;;;;;1.95;0.77;;;;;;;6.58;96.12;99021.69;10337145;28;20050;-61
2022/02/16 08:18:51;;;;;;;1.20;0.80;;;;;;;6.60;95.69;98997.78;10342241;28;20140;-60
2022/02/16 08:23:52;;;;;;;3.05;0.77;;;;;;;6.53;95.89;98982.44;10337743;28;20053;-60
2022/02/16 08:28:53;;;;;;;2.40;0.65;;;;;;;6.60;96.10;98972.16;10338864;28;20045;-61
2022/02/16 08:33:55;;;;;;;2.72;0.85;;;;;;;6.65;96.46;98974.41;10337788;28;20060;-62
2022/02/16 08:38:56;;;;;;;2.35;1.00;;;;;;;6.79;96.73;98975.91;10338656;28;20060;-61
2022/02/16 08:43:58;;;;;;;1.00;0.50;;;;;;;6.80;95.93;98965.19;10340768;28;20257;-60
2022/02/16 08:49:01;;;;;;;1.52;0.68;;;;;;;6.81;96.10;98979.25;10336988;28;20060;-59
2022/02/16 08:54:02;;;;;;;1.23;0.60;;;;;;;6.87;95.77;98968.13;10337800;28;20548;-61
2022/02/16 08:59:05;;;;;;;2.22;0.73;;;;;;;7.01;95.36;98954.56;10339573;28;20187;-61
2022/02/16 09:04:06;;;;;;;1.83;0.45;;;;;;;7.00;94.92;98944.13;10341223;28;20058;-62
2022/02/16 09:09:08;;;;;;;1.58;0.80;;;;;;;7.15;94.39;98926.91;10347260;28;20049;-61
2022/02/16 09:14:09;;;;;;;2.67;1.40;;;;;;;7.12;94.20;98921.88;10350278;28;20140;-61
2022/02/16 09:19:10;;;;;;;3.47;1.08;;;;;;;6.98;94.82;98890.50;10348351;28;20050;-61
2022/02/16 09:24:12;;;;;;;1.83;0.77;;;;;;;6.97;95.05;98899.41;10346267;28;20424;-62
2022/02/16 09:29:13;;;;;;;1.95;0.80;;;;;;;7.06;95.10;98888.03;10310850;28;20049;-62
2022/02/16 09:34:14;;;;;;;1.55;0.63;;;;;;;7.12;95.61;98894.59;10314397;28;20050;-62
2022/02/16 09:39:16;;;;;;;0.75;0.50;;;;;;;7.07;95.75;98882.59;10322807;28;20523;-61
2022/02/16 09:44:27;;;;;;;2.05;0.50;;;;;;;7.07;95.65;98874.66;10314072;28;20199;-61
2022/02/16 09:49:32;;;;;;;1.52;0.70;;;;;;;7.16;96.62;98893.31;10310208;28;20066;-61
2022/02/16 09:54:34;;;;;;;2.93;1.03;;;;;;;7.26;96.16;98867.72;10322510;28;20394;-60
2022/02/16 09:59:36;;;;;;;2.80;1.50;;;;;;;7.20;97.26;98868.28;10312293;28;20058;-62
2022/02/16 10:04:39;;;;;;;2.60;0.75;;;;;;;7.31;97.26;98886.72;10313346;28;20049;-62
2022/02/16 10:09:41;;;;;;;2.78;1.13;;;;;;;7.34;97.85;98896.16;10310922;28;20050;-62
2022/02/16 10:14:45;;;;;;;1.52;0.85;;;;;;;7.32;97.94;98876.94;10302303;28;20054;-62
2022/02/16 10:19:48;;;;;;;2.03;1.17;;;;;;;7.29;97.69;98878.03;10309216;28;20054;-63
2022/02/16 10:24:50;;;;;;;3.03;1.20;;;;;;;7.32;98.04;98875.13;10306102;28;20053;-63
2022/02/16 10:29:51;;;;;;;2.58;1.77;;;;;;;7.22;98.66;98856.59;10310265;28;20050;-63
2022/02/16 10:34:56;;;;;;;2.42;1.50;;;;;;;7.39;98.68;98855.06;10303063;28;20061;-61
2022/02/16 10:39:58;;;;;;;;;;;;;;;7.55;97.26;98856.34;10311954;28;20077;-63
2022/02/16 10:45:08;;;;;;;2.08;1.30;;;;;;;7.64;96.94;98871.41;10313680;28;19929;-62
2022/02/16 10:50:13;;;;;;;1.98;1.27;;;;;;;7.59;96.58;98857.75;10310399;28;20043;-63
2022/02/16 10:55:14;;;;;;;2.53;1.40;;;;;;;7.72;96.00;98868.91;10315474;28;20450;-63
2022/02/16 11:00:18;;;;;;;3.78;2.13;;;;;;;7.71;96.38;98867.22;10306775;28;20064;-63
2022/02/16 11:05:22;;;;;;;2.13;1.15;;;;;;;7.68;96.66;98861.38;10305097;28;20053;-63
2022/02/16 11:10:24;;;;;;;1.50;1.00;;;;;;;7.78;96.50;98857.75;10318614;28;20042;-62
2022/02/16 11:15:25;;;;;;;1.63;1.10;;;;;;;7.93;96.78;98860.81;10308670;28;20058;-63
2022/02/16 11:20:27;;;;;;;2.17;1.00;;;;;;;7.95;96.17;98865.97;10314814;28;20062;-63
2022/02/16 11:25:38;;;;;;;2.00;1.00;;;;;;;7.95;96.28;98845.59;10310624;28;20058;-63
2022/02/16 11:30:44;;;;;;;1.95;1.17;;;;;;;7.94;96.08;98840.44;10304693;28;20054;-63
2022/02/16 11:35:57;;;;;;;2.15;1.20;;;;;;;8.06;96.66;98849.06;10312114;28;20061;-62
2022/02/16 11:41:00;;;;;;;1.47;1.23;;;;;;;7.99;96.80;98859.41;10315211;28;20042;-62
2022/02/16 11:46:03;;;;;;;1.85;1.25;;;;;;;7.95;96.52;98818.28;10345885;28;20042;-62
2022/02/16 11:51:24;;;;;;;1.60;1.10;;;;;;;8.14;95.81;98828.00;10343252;28;20060;-62
2022/02/16 11:56:25;;;;;;;1.80;0.93;;;;;;;8.21;95.71;98820.31;10322017;28;20053;-63
2022/02/16 12:01:26;;;;;;;1.80;1.02;;;;;;;8.29;95.54;98815.97;10306832;28;20139;-63
2022/02/16 12:06:36;;;;;;;1.92;1.10;;;;;;;8.34;95.40;98809.41;10300724;28;20432;-63
2022/02/16 12:11:40;;;;;;;1.98;1.50;;;;;;;8.35;95.48;98803.94;10306098;28;20080;-62
2022/02/16 12:16:52;;;;;;;1.65;1.13;;;;;;;8.38;95.37;98816.91;10309620;28;20053;-62
2022/02/16 12:21:55;;;;;;;2.08;1.30;;;;;;;8.28;95.49;98779.81;10303773;28;20130;-63
2022/02/16 12:26:58;;;;;;;1.77;0.95;;;;;;;8.48;95.22;98801.00;10312000;28;20802;-63
2022/02/16 12:32:03;;;;;;;4.40;1.40;;;;;;;8.61;95.28;98790.06;10303064;28;20054;-62
2022/02/16 12:37:11;;;;;;;3.30;0.90;;;;;;;8.74;94.45;98776.47;10309527;28;20127;-65
2022/02/16 12:42:13;;;;;;;1.17;0.80;;;;;;;8.80;94.58;98775.88;10314908;28;20145;-63
2022/02/16 12:47:15;;;;;;;0.73;0.70;;;;;;;8.87;94.04;98779.56;10320253;28;20055;-63
2022/02/16 12:52:16;;;;;;;1.63;0.80;;;;;;;8.87;94.30;98773.44;10312442;28;20500;-63
2022/02/16 12:57:26;;;;;;;1.07;0.60;;;;;;;8.95;94.12;98761.09;10313056;28;20057;-63
2022/02/16 13:02:30;;;;;;;1.75;0.68;;;;;;;9.05;93.71;98755.72;10312941;28;20042;-63
2022/02/16 13:07:34;;;;;;;1.27;1.08;;;;;;;9.17;93.38;98748.38;10316144;28;20057;-63
2022/02/16 13:12:44;;;;;;;3.05;2.25;;;;;;;9.26;93.46;98749.28;10311029;28;20049;-63
2022/02/16 13:17:54;;;;;;;1.70;1.42;;;;;;;9.35;93.16;98741.25;10310545;28;20049;-63
2022/02/16 13:22:57;;;;;;;1.13;1.00;;;;;;;9.16;92.58;98686.50;10309358;28;20195;-64
2022/02/16 13:28:02;;;;;;;1.80;0.38;;;;;;;9.49;92.10;98710.66;10317115;28;20054;-63
2022/02/16 13:33:30;;;;;;;0.70;0.40;;;;;;;9.74;90.95;98729.41;10314446;28;20578;-63
2022/02/16 13:38:33;;;;;;;0.47;0.30;;;;;;;9.80;90.40;98731.44;10315730;28;20055;-64
2022/02/16 13:43:56;;;;;;;0.38;0.17;;;;;;;9.90;90.03;98734.84;10311521;28;20613;-64
2022/02/16 13:49:09;;;;;;;0.50;0.17;;;;;;;9.98;89.75;98727.91;10314340;28;20050;-61
2022/02/16 13:54:18;;;;;;;1.95;0.30;;;;;;;10.06;89.68;98714.69;10318015;28;20052;-62
2022/02/16 13:59:19;;;;;;;1.98;0.20;;;;;;;10.17;89.11;98709.06;10309878;28;20140;-62
2022/02/16 14:04:21;;;;;;;0.40;0.17;;;;;;;10.23;89.25;98686.34;10319746;28;20076;-62
2022/02/16 14:09:22;;;;;;;0.77;0.30;;;;;;;10.21;88.91;98662.56;10314078;28;20479;-64
2022/02/16 14:14:24;;;;;;;0.57;0.20;;;;;;;10.28;89.10;98657.44;10312801;28;20053;-64
2022/02/16 14:19:25;;;;;;;1.83;0.20;;;;;;;10.27;88.41;98639.81;10316677;28;20536;-62
2022/02/16 14:24:28;;;;;;;1.02;0.30;;;;;;;10.38;88.06;98662.66;10317080;28;20395;-62
2022/02/16 14:29:30;;;;;;;0.55;0.30;;;;;;;10.37;88.45;98627.25;10318679;28;20057;-62
2022/02/16 14:34:32;;;;;;;0.35;0.10;;;;;;;10.52;87.29;98632.75;10314974;28;20054;-64
2022/02/16 14:39:34;;;;;;;1.58;0.20;;;;;;;10.36;87.52;98612.28;10303808;28;20054;-63
2022/02/16 14:44:36;;;;;;;0.13;0.10;;;;;;;10.52;87.21;98647.91;10312044;28;20124;-62
2022/02/16 14:49:38;;;;;;;0.57;0.20;;;;;;;10.57;87.63;98640.28;10313104;28;20101;-63
2022/02/16 14:54:42;;;;;;;0.25;0.00;;;;;;;10.58;87.89;98642.78;10319095;28;20416;-62
2022/02/16 14:59:44;;;;;;;0.45;0.10;;;;;;;10.66;87.92;98670.38;10302718;28;20200;-62
2022/02/16 15:04:45;;;;;;;1.48;0.43;;;;;;;10.52;91.34;98662.03;10303602;28;20062;-63
2022/02/16 15:09:47;;;;;;;0.45;0.17;;;;;;;10.43;93.78;98686.94;10309970;28;20093;-64
2022/02/16 15:14:48;;;;;;;0.70;0.20;;;;;;;10.25;95.28;98674.56;10306900;28;20452;-62
2022/02/16 15:19:49;;;;;;;0.65;0.20;;;;;;;10.36;94.28;98654.03;10315302;28;20219;-62
2022/02/16 15:24:51;;;;;;;0.50;0.25;;;;;;;10.54;92.89;98681.34;10314798;28;20083;-62
2022/02/16 15:30:13;;;;;;;1.70;0.70;;;;;;;10.58;91.56;98673.84;10310112;28;20056;-63
2022/02/16 15:35:14;;;;;;;0.70;0.30;;;;;;;10.59;92.08;98684.34;10306271;28;20080;-62
2022/02/16 15:40:16;;;;;;;0.50;0.20;;;;;;;10.58;91.81;98692.47;10311704;28;20057;-62
2022/02/16 15:45:17;;;;;;;1.45;0.50;;;;;;;10.59;91.66;98688.84;10307449;28;20602;-62
2022/02/16 15:50:19;;;;;;;1.20;0.40;;;;;;;10.59;91.65;98659.56;10308264;28;20046;-63
2022/02/16 15:55:22;;;;;;;0.55;0.40;;;;;;;10.63;92.16;98681.34;10303804;28;20053;-62
2022/02/16 16:00:23;;;;;;;1.08;0.60;;;;;;;10.60;94.14;98656.75;10306102;28;20161;-63
2022/02/16 16:05:26;;;;;;;0.68;0.45;;;;;;;10.50;96.84;98664.03;10311480;28;20049;-63
2022/02/16 16:10:27;;;;;;;1.38;0.85;;;;;;;10.45;97.19;98637.09;10300995;28;20058;-63
2022/02/16 16:15:29;;;;;;;1.58;1.30;;;;;;;10.42;97.58;98634.75;10306307;28;20490;-63
2022/02/16 16:20:30;;;;;;;1.48;1.10;;;;;;;10.25;97.34;98621.38;10303542;28;20532;-63
2022/02/16 16:25:32;;;;;;;1.55;1.10;;;;;;;10.36;97.01;98654.03;10310813;28;20058;-62
2022/02/16 16:30:33;;;;;;;2.47;0.98;;;;;;;10.31;99.00;98656.28;10307287;28;20054;-63
2022/02/16 16:35:36;;;;;;;1.23;0.90;;;;;;;10.31;100.00;98641.16;10306133;28;20157;-63
2022/02/16 16:40:38;;;;;;;1.05;0.65;;;;;;;10.23;100.00;98609.22;10307241;28;20057;-63
2022/02/16 16:45:39;;;;;;;0.73;0.60;;;;;;;10.24;100.00;98627.69;10310104;28;20133;-61
2022/02/16 16:50:42;;;;;;;1.00;0.90;;;;;;;10.32;100.00;98639.34;10303909;28;20050;-62
2022/02/16 16:55:44;;;;;;;1.40;0.82;;;;;;;10.33;100.00;98638.31;10314516;28;20469;-62
2022/02/16 17:00:47;;;;;;;1.52;1.27;;;;;;;10.36;99.97;98652.19;10309496;28;20046;-60
2022/02/16 17:05:54;;;;;;;2.47;0.98;;;;;;;10.35;100.00;98636.38;10307864;28;20064;-62
2022/02/16 17:10:55;;;;;;;1.67;1.35;;;;;;;10.30;100.00;98644.81;10303944;28;20050;-61
2022/02/16 17:15:57;;;;;;;3.08;1.10;;;;;;;10.35;100.00;98647.03;10311349;28;20042;-62
2022/02/16 17:20:58;;;;;;;1.48;1.30;;;;;;;10.30;100.00;98606.72;10307672;28;20227;-61
2022/02/16 17:25:59;;;;;;;1.17;1.08;;;;;;;10.36;100.00;98608.81;10302893;28;20065;-63
2022/02/16 17:31:02;;;;;;;1.98;1.17;;;;;;;10.42;99.42;98621.44;10318965;28;20050;-63
2022/02/16 17:36:03;;;;;;;0.90;0.80;;;;;;;10.42;99.00;98619.63;10311388;28;20050;-62
2022/02/16 17:41:05;;;;;;;1.77;1.30;;;;;;;10.51;98.13;98615.16;10308289;28;20141;-61
2022/02/16 17:46:07;;;;;;;1.50;1.40;;;;;;;10.66;97.23;98623.31;10346309;28;20050;-62
2022/02/16 17:51:09;;;;;;;3.25;1.63;;;;;;;10.72;96.59;98588.06;10326204;28;20058;-62
2022/02/16 17:56:11;;;;;;;1.95;1.60;;;;;;;10.79;96.14;98586.41;10312023;28;20059;-63
2022/02/16 18:01:13;;;;;;;2.10;1.48;;;;;;;10.86;95.64;98585.75;10309977;28;20565;-62
2022/02/16 18:06:14;;;;;;;2.22;1.73;;;;;;;10.94;95.02;98575.94;10313940;28;20053;-62
2022/02/16 18:11:15;;;;;;;2.03;1.83;;;;;;;11.02;94.76;98590.22;10307992;28;20578;-64
2022/02/16 18:16:17;;;;;;;2.10;1.90;;;;;;;11.10;94.04;98566.28;10311990;28;20104;-63
2022/02/16 18:21:18;;;;;;;2.78;1.27;;;;;;;11.06;93.62;98543.63;10315060;28;22092;-63
2022/02/16 18:26:20;;;;;;;1.65;1.23;;;;;;;11.10;93.56;98556.44;10306807;28;20063;-61
2022/02/16 18:31:22;;;;;;;4.20;2.00;;;;;;;11.16;95.12;98559.44;10318425;28;20058;-63
2022/02/16 18:36:24;;;;;;;2.83;2.40;;;;;;;11.14;95.45;98556.94;10312541;28;20509;-64
2022/02/16 18:41:29;;;;;;;1.92;1.42;;;;;;;11.05;97.68;98564.13;10306363;28;20673;-62
2022/02/16 18:46:32;;;;;;;2.20;1.50;;;;;;;10.99;99.34;98564.78;10306620;28;20057;-67
2022/02/16 18:51:34;;;;;;;2.55;1.77;;;;;;;10.98;100.00;98554.31;10312365;28;20050;-62
2022/02/16 18:56:35;;;;;;;2.50;2.05;;;;;;;10.99;100.00;98539.97;10312701;28;20057;-62
2022/02/16 19:01:38;;;;;;;3.17;2.60;;;;;;;10.98;100.00;98528.50;10318506;28;20088;-62
2022/02/16 19:06:40;;;;;;;4.03;2.63;;;;;;;11.04;100.00;98532.34;10314410;28;20054;-61
2022/02/16 19:11:41;;;;;;;4.20;2.80;;;;;;;11.05;100.00;98532.16;10306528;28;20095;-63
2022/02/16 19:16:42;;;;;;;3.05;2.78;;;;;;;11.01;100.00;98508.72;10336299;28;20049;-63
2022/02/16 19:21:44;;;;;;;3.30;2.50;;;;;;;11.06;100.00;98501.03;10348452;28;20423;-63
2022/02/16 19:26:46;;;;;;;3.13;2.78;;;;;;;11.13;100.00;98507.34;10356646;28;20561;-63
2022/02/16 19:31:48;;;;;;;2.28;1.80;;;;;;;11.13;100.00;98502.84;10344653;28;25048;-63
2022/02/16 19:36:49;;;;;;;2.40;1.83;;;;;;;11.12;100.00;98485.22;10345273;28;20744;-63
2022/02/16 19:41:51;;;;;;;2.00;1.67;;;;;;;11.16;100.00;98469.72;10340341;28;20046;-63
2022/02/16 19:46:53;;;;;;;1.35;0.98;;;;;;;11.19;100.00;98458.72;10340094;28;20697;-63
2022/02/16 19:51:54;;;;;;;1.40;0.90;;;;;;;11.15;100.00;98441.41;10337366;28;20049;-64
2022/02/16 19:56:56;;;;;;;1.45;0.70;;;;;;;11.28;100.00;98473.69;10340307;28;20712;-61
2022/02/16 20:01:58;;;;;;;1.20;0.70;;;;;;;11.32;100.00;98468.84;10341288;28;20056;-63
2022/02/16 20:06:59;;;;;;;0.90;0.45;;;;;;;11.28;99.53;98452.38;10336741;28;20122;-62
2022/02/16 20:12:00;;;;;;;0.73;0.43;;;;;;;11.30;99.18;98449.53;10341222;28;20424;-62
2022/02/16 20:17:02;;;;;;;1.20;0.57;;;;;;;11.40;98.81;98462.66;10314289;28;20621;-63
2022/02/16 20:22:04;;;;;;;0.98;0.50;;;;;;;11.43;98.71;98443.66;10305403;28;20061;-63
2022/02/16 20:27:07;;;;;;;0.93;0.40;;;;;;;11.49;98.03;98443.78;10310314;28;20060;-62
2022/02/16 20:32:08;;;;;;;1.45;0.38;;;;;;;11.43;98.27;98417.03;10308438;28;20424;-63
2022/02/16 20:37:10;;;;;;;0.30;0.20;;;;;;;11.44;98.19;98392.03;10303495;28;20157;-62
2022/02/16 20:42:11;;;;;;;1.58;0.13;;;;;;;11.53;98.16;98412.31;10310883;28;20057;-62
2022/02/16 20:47:13;;;;;;;1.02;0.52;;;;;;;11.65;98.51;98410.91;10344213;28;20520;-63
2022/02/16 20:52:26;;;;;;;0.68;0.40;;;;;;;11.61;98.65;98414.91;10342356;28;20049;-63
2022/02/16 20:57:31;;;;;;;0.52;0.20;;;;;;;11.57;98.76;98386.97;10355623;28;20061;-63
2022/02/16 21:02:33;;;;;;;0.60;0.17;;;;;;;11.57;98.53;98400.28;10356946;28;20057;-64
2022/02/16 21:07:34;;;;;;;0.60;0.60;;;;;;;11.51;98.54;98390.31;10353339;28;20054;-63
2022/02/16 21:12:36;;;;;;;0.60;0.20;;;;;;;11.51;98.51;98382.34;10354324;28;20050;-63
2022/02/16 21:17:37;;;;;;;1.08;0.20;;;;;;;11.62;99.07;98387.28;10360369;28;20133;-63
2022/02/16 21:22:39;;;;;;;0.65;0.47;;;;;;;11.57;100.00;98383.47;10354733;28;20065;-63
2022/02/16 21:27:40;;;;;;;0.88;0.40;;;;;;;11.59;100.00;98366.31;10359708;28;20144;-62
2022/02/16 21:32:42;;;;;;;0.40;0.20;;;;;;;11.65;100.00;98354.13;10361239;28;20061;-63
2022/02/16 21:37:43;;;;;;;1.02;0.28;;;;;;;11.61;100.00;98342.16;10357344;28;20139;-64
2022/02/16 21:42:45;;;;;;;1.27;0.30;;;;;;;11.58;100.00;98324.66;10357804;28;20049;-62
2022/02/16 21:47:46;;;;;;;0.90;0.30;;;;;;;11.65;100.00;98336.28;10358001;28;20050;-63
2022/02/16 21:52:48;;;;;;;0.60;0.40;;;;;;;11.67;100.00;98307.59;10359024;28;20052;-61
2022/02/16 21:57:49;;;;;;;0.88;0.22;;;;;;;11.63;100.00;98298.34;10355751;28;20077;-63
2022/02/16 22:02:51;;;;;;;0.45;0.20;;;;;;;11.76;100.00;98305.72;10353596;28;20136;-64
2022/02/16 22:07:52;;;;;;;0.50;0.30;;;;;;;11.81;100.00;98307.84;10356694;28;20060;-63
2022/02/16 22:12:54;;;;;;;0.20;0.10;;;;;;;11.90;100.00;98301.44;10360050;28;20045;-63
2022/02/16 22:17:58;;;;;;;0.65;0.20;;;;;;;12.05;100.00;98293.50;10353280;28;20203;-64
2022/02/16 22:22:59;;;;;;;0.50;0.10;;;;;;;12.12;99.98;98309.63;10354381;28;20056;-63
2022/02/16 22:28:01;;;;;;;1.35;0.10;;;;;;;12.21;99.30;98308.53;10351167;28;20284;-63
2022/02/16 22:33:02;;;;;;;0.52;0.10;;;;;;;12.12;100.00;98293.63;10353741;28;20045;-62
2022/02/16 22:38:04;;;;;;;0.30;0.20;;;;;;;12.05;100.00;98260.69;10355034;28;20155;-62
2022/02/16 22:43:05;;;;;;;1.15;0.10;;;;;;;12.02;100.00;98267.19;10352611;28;20805;-62
2022/02/16 22:48:06;;;;;;;0.30;0.10;;;;;;;11.97;100.00;98251.75;10359795;28;20055;-63
2022/02/16 22:53:08;;;;;;;0.30;0.20;;;;;;;11.98;100.00;98245.41;10355525;28;20223;-64
2022/02/16 22:58:09;;;;;;;0.20;0.15;;;;;;;12.31;100.00;98260.22;10355802;28;20058;-63
2022/02/16 23:03:11;;;;;;;0.47;0.10;;;;;;;12.52;99.27;98278.19;10355835;28;20049;-63
2022/02/16 23:13:33;;;;;;;0.57;0.10;;;;;;;12.68;97.12;98251.28;10353263;28;20056;-64
2022/02/16 23:18:34;;;;;;;0.40;0.20;;;;;;;12.72;96.78;98257.94;10354087;28;20060;-63
2022/02/16 23:23:36;;;;;;;0.93;0.10;;;;;;;12.65;96.89;98257.00;10356009;28;20563;-63
2022/02/16 23:28:38;;;;;;;0.10;0.10;;;;;;;12.73;96.63;98264.94;10356427;28;20050;-63
2022/02/16 23:33:40;;;;;;;0.57;0.15;;;;;;;12.64;96.26;98247.38;10350091;28;20144;-63
2022/02/16 23:38:43;;;;;;;0.38;0.20;;;;;;;12.71;96.02;98276.78;10352076;28;20067;-63